sensor_id;sensor_type;location;lat;lon;timestamp;pressure;altitude;pressure_sealevel;temperature;humidity
3206;BME280;1615;53.602;11.418;2023-01-29T00:00:06;102217.94;;;5.14;100.00
3206;BME280;1615;53.602;11.418;2023-01-29T00:02:35;102214.63;;;5.12;100.00
3206;BME280;1615;53.602;11.418;2023-01-29T00:05:01;102213.09;;;5.16;100.00
3206;BME280;1615;53.602;11.418;2023-01-29T00:07:28;102214.91;;;5.22;100.00
3206;BME280;1615;53.602;11.418;2023-01-29T00:09:54;102215.97;;;5.21;100.00
3206;BME280;1615;53.602;11.418;2023-01-29T00:12:19;102160.03;;;4.89;100.00
3206;BME280;1615;53.602;11.418;2023-01-29T00:14:44;102212.38;;;5.27;100.00
3206;BME280;1615;53.602;11.418;2023-01-29T00:17:10;102216.78;;;5.28;100.00
3206;BME280;1615;53.602;11.418;2023-01-29T00:19:35;102211.94;;;5.30;100.00
3206;BME280;1615;53.602;11.418;2023-01-29T00:22:00;102209.22;;;5.30;100.00
3206;BME280;1615;53.602;11.418;2023-01-29T00:24:26;102222.81;;;5.30;100.00
3206;BME280;1615;53.602;11.418;2023-01-29T00:26:51;102214.44;;;5.31;100.00
3206;BME280;1615;53.602;11.418;2023-01-29T00:29:16;102225.53;;;5.30;100.00
3206;BME280;1615;53.602;11.418;2023-01-29T00:31:43;102216.47;;;5.36;100.00
3206;BME280;1615;53.602;11.418;2023-01-29T00:34:09;102222.66;;;5.43;100.00
3206;BME280;1615;53.602;11.418;2023-01-29T00:36:35;102224.06;;;5.52;100.00
3206;BME280;1615;53.602;11.418;2023-01-29T00:39:00;102221.22;;;5.40;100.00
3206;BME280;1615;53.602;11.418;2023-01-29T00:41:34;102216.66;;;5.59;100.00
3206;BME280;1615;53.602;11.418;2023-01-29T00:44:18;102222.88;;;5.66;100.00
3206;BME280;1615;53.602;11.418;2023-01-29T00:47:03;102206.97;;;5.63;100.00
3206;BME280;1615;53.602;11.418;2023-01-29T00:49:28;102203.41;;;5.62;100.00
3206;BME280;1615;53.602;11.418;2023-01-29T00:51:54;102049.84;;;4.75;100.00
3206;BME280;1615;53.602;11.418;2023-01-29T00:54:38;102190.66;;;5.63;100.00
3206;BME280;1615;53.602;11.418;2023-01-29T00:57:03;102199.50;;;5.58;100.00
3206;BME280;1615;53.602;11.418;2023-01-29T00:59:29;102189.91;;;5.56;100.00
3206;BME280;1615;53.602;11.418;2023-01-29T01:01:54;102189.53;;;5.52;100.00
3206;BME280;1615;53.602;11.418;2023-01-29T01:04:39;102183.69;;;5.49;100.00
3206;BME280;1615;53.602;11.418;2023-01-29T01:07:04;102189.97;;;5.49;100.00
3206;BME280;1615;53.602;11.418;2023-01-29T01:09:30;102112.59;;;5.09;100.00
3206;BME280;1615;53.602;11.418;2023-01-29T01:12:14;102173.72;;;5.43;100.00
3206;BME280;1615;53.602;11.418;2023-01-29T01:14:39;102178.72;;;5.46;100.00
3206;BME280;1615;53.602;11.418;2023-01-29T01:17:08;102150.84;;;5.32;100.00
3206;BME280;1615;53.602;11.418;2023-01-29T01:19:34;102181.59;;;5.51;100.00
3206;BME280;1615;53.602;11.418;2023-01-29T01:21:59;102122.19;;;5.12;100.00
3206;BME280;1615;53.602;11.418;2023-01-29T01:24:25;102182.50;;;5.45;100.00
3206;BME280;1615;53.602;11.418;2023-01-29T01:26:50;102172.69;;;5.44;100.00
3206;BME280;1615;53.602;11.418;2023-01-29T01:29:15;102176.59;;;5.48;100.00
3206;BME280;1615;53.602;11.418;2023-01-29T01:31:41;102171.31;;;5.53;100.00
3206;BME280;1615;53.602;11.418;2023-01-29T01:34:06;102168.44;;;5.48;100.00
3206;BME280;1615;53.602;11.418;2023-01-29T01:36:31;102157.78;;;5.46;100.00
3206;BME280;1615;53.602;11.418;2023-01-29T01:38:57;102160.38;;;5.41;100.00
3206;BME280;1615;53.602;11.418;2023-01-29T01:41:23;102159.53;;;5.41;100.00
3206;BME280;1615;53.602;11.418;2023-01-29T01:44:06;102063.13;;;4.83;100.00
3206;BME280;1615;53.602;11.418;2023-01-29T01:46:36;102159.38;;;5.54;100.00
3206;BME280;1615;53.602;11.418;2023-01-29T01:51:32;102183.09;;;5.65;100.00
3206;BME280;1615;53.602;11.418;2023-01-29T01:54:04;102178.28;;;5.67;100.00
3206;BME280;1615;53.602;11.418;2023-01-29T01:56:33;102198.97;;;5.68;100.00
3206;BME280;1615;53.602;11.418;2023-01-29T01:59:09;102173.44;;;5.69;100.00
3206;BME280;1615;53.602;11.418;2023-01-29T02:01:35;102177.59;;;5.71;100.00
3206;BME280;1615;53.602;11.418;2023-01-29T02:04:17;102178.50;;;5.65;100.00
3206;BME280;1615;53.602;11.418;2023-01-29T02:07:05;102182.06;;;5.66;100.00
3206;BME280;1615;53.602;11.418;2023-01-29T02:09:52;102173.91;;;5.66;100.00
3206;BME280;1615;53.602;11.418;2023-01-29T02:12:21;102169.22;;;5.73;100.00
3206;BME280;1615;53.602;11.418;2023-01-29T02:14:47;102160.59;;;5.76;100.00
3206;BME280;1615;53.602;11.418;2023-01-29T02:17:14;102082.38;;;5.35;100.00
3206;BME280;1615;53.602;11.418;2023-01-29T02:25:46;102154.88;;;5.84;100.00
3206;BME280;1615;53.602;11.418;2023-01-29T02:28:42;102144.00;;;5.84;100.00
3206;BME280;1615;53.602;11.418;2023-01-29T02:31:34;102150.66;;;5.88;100.00
3206;BME280;1615;53.602;11.418;2023-01-29T02:34:10;102146.84;;;5.89;100.00
3206;BME280;1615;53.602;11.418;2023-01-29T02:36:50;102146.63;;;5.90;100.00
3206;BME280;1615;53.602;11.418;2023-01-29T02:44:40;102141.84;;;5.86;100.00
3206;BME280;1615;53.602;11.418;2023-01-29T02:47:22;102136.88;;;5.83;100.00
3206;BME280;1615;53.602;11.418;2023-01-29T02:50:25;102142.34;;;5.83;100.00
3206;BME280;1615;53.602;11.418;2023-01-29T02:53:12;102144.00;;;5.84;100.00
3206;BME280;1615;53.602;11.418;2023-01-29T02:55:48;102139.56;;;6.01;100.00
3206;BME280;1615;53.602;11.418;2023-01-29T02:58:21;102139.56;;;6.01;100.00
3206;BME280;1615;53.602;11.418;2023-01-29T03:00:50;102128.81;;;6.06;100.00
3206;BME280;1615;53.602;11.418;2023-01-29T03:03:35;102131.69;;;6.11;100.00
3206;BME280;1615;53.602;11.418;2023-01-29T03:06:22;102086.28;;;5.75;100.00
3206;BME280;1615;53.602;11.418;2023-01-29T03:08:58;102107.41;;;6.09;100.00
3206;BME280;1615;53.602;11.418;2023-01-29T03:11:29;102080.75;;;6.00;100.00
3206;BME280;1615;53.602;11.418;2023-01-29T03:14:37;102090.50;;;6.07;100.00
3206;BME280;1615;53.602;11.418;2023-01-29T03:17:15;102083.38;;;6.06;100.00
3206;BME280;1615;53.602;11.418;2023-01-29T03:19:42;102082.31;;;6.07;100.00
3206;BME280;1615;53.602;11.418;2023-01-29T03:22:12;102072.38;;;6.01;100.00
3206;BME280;1615;53.602;11.418;2023-01-29T03:24:46;102062.53;;;6.00;100.00
3206;BME280;1615;53.602;11.418;2023-01-29T03:27:45;102062.53;;;6.00;100.00
3206;BME280;1615;53.602;11.418;2023-01-29T03:30:32;102048.22;;;6.05;100.00
3206;BME280;1615;53.602;11.418;2023-01-29T03:33:20;102008.81;;;5.78;100.00
3206;BME280;1615;53.602;11.418;2023-01-29T03:35:51;102042.78;;;6.05;100.00
3206;BME280;1615;53.602;11.418;2023-01-29T03:38:19;102047.78;;;6.08;100.00
3206;BME280;1615;53.602;11.418;2023-01-29T03:40:52;102048.22;;;6.05;100.00
3206;BME280;1615;53.602;11.418;2023-01-29T03:49:04;102059.47;;;6.08;100.00
3206;BME280;1615;53.602;11.418;2023-01-29T03:51:55;102054.16;;;6.13;100.00
3206;BME280;1615;53.602;11.418;2023-01-29T03:57:30;102054.88;;;6.09;100.00
3206;BME280;1615;53.602;11.418;2023-01-29T04:00:15;102055.94;;;6.08;100.00
3206;BME280;1615;53.602;11.418;2023-01-29T04:02:54;102044.22;;;6.07;100.00
3206;BME280;1615;53.602;11.418;2023-01-29T04:05:28;102039.59;;;6.08;100.00
3206;BME280;1615;53.602;11.418;2023-01-29T04:08:02;102050.59;;;6.13;100.00
3206;BME280;1615;53.602;11.418;2023-01-29T04:10:30;102049.09;;;6.17;100.00
3206;BME280;1615;53.602;11.418;2023-01-29T04:13:01;102053.47;;;6.18;100.00
3206;BME280;1615;53.602;11.418;2023-01-29T04:15:30;102054.66;;;6.22;100.00
3206;BME280;1615;53.602;11.418;2023-01-29T04:17:58;102052.06;;;6.27;100.00
3206;BME280;1615;53.602;11.418;2023-01-29T04:20:24;102050.78;;;6.29;100.00
3206;BME280;1615;53.602;11.418;2023-01-29T04:22:50;102048.19;;;6.34;100.00
3206;BME280;1615;53.602;11.418;2023-01-29T04:25:21;102044.03;;;6.32;100.00
3206;BME280;1615;53.602;11.418;2023-01-29T04:28:18;102040.72;;;6.30;100.00
3206;BME280;1615;53.602;11.418;2023-01-29T04:31:01;102034.22;;;6.31;100.00
3206;BME280;1615;53.602;11.418;2023-01-29T04:39:14;102040.94;;;6.28;100.00
3206;BME280;1615;53.602;11.418;2023-01-29T04:42:04;102061.56;;;6.36;100.00
3206;BME280;1615;53.602;11.418;2023-01-29T04:45:21;102055.06;;;6.37;100.00
3206;BME280;1615;53.602;11.418;2023-01-29T04:50:15;102066.06;;;6.42;100.00
3206;BME280;1615;53.602;11.418;2023-01-29T04:52:51;102065.59;;;6.45;100.00
3206;BME280;1615;53.602;11.418;2023-01-29T04:55:31;102081.13;;;6.44;100.00
3206;BME280;1615;53.602;11.418;2023-01-29T04:58:35;102001.16;;;6.16;100.00
3206;BME280;1615;53.602;11.418;2023-01-29T05:01:05;102044.53;;;6.63;100.00
3206;BME280;1615;53.602;11.418;2023-01-29T05:03:33;102039.19;;;6.68;100.00
3206;BME280;1615;53.602;11.418;2023-01-29T05:06:01;102047.16;;;6.70;100.00
3206;BME280;1615;53.602;11.418;2023-01-29T05:08:27;102041.13;;;6.68;100.00
3206;BME280;1615;53.602;11.418;2023-01-29T05:10:57;102048.81;;;6.71;100.00
3206;BME280;1615;53.602;11.418;2023-01-29T05:13:24;102049.88;;;6.70;100.00
3206;BME280;1615;53.602;11.418;2023-01-29T05:18:21;102033.88;;;6.62;100.00
3206;BME280;1615;53.602;11.418;2023-01-29T05:20:47;102034.25;;;6.65;100.00
3206;BME280;1615;53.602;11.418;2023-01-29T05:23:20;102030.91;;;6.63;100.00
3206;BME280;1615;53.602;11.418;2023-01-29T05:25:46;102043.09;;;6.61;100.00
3206;BME280;1615;53.602;11.418;2023-01-29T05:28:12;102036.63;;;6.62;100.00
3206;BME280;1615;53.602;11.418;2023-01-29T05:30:42;102004.53;;;6.00;100.00
3206;BME280;1615;53.602;11.418;2023-01-29T05:33:14;102036.50;;;6.57;100.00
3206;BME280;1615;53.602;11.418;2023-01-29T05:35:40;102037.56;;;6.56;100.00
3206;BME280;1615;53.602;11.418;2023-01-29T05:38:06;102023.56;;;6.52;100.00
3206;BME280;1615;53.602;11.418;2023-01-29T05:40:31;102025.25;;;6.53;100.00
3206;BME280;1615;53.602;11.418;2023-01-29T05:42:57;102032.69;;;6.46;100.00
3206;BME280;1615;53.602;11.418;2023-01-29T05:45:23;102023.56;;;6.52;100.00
3206;BME280;1615;53.602;11.418;2023-01-29T05:47:48;102020.59;;;6.54;100.00
3206;BME280;1615;53.602;11.418;2023-01-29T05:50:14;102010.31;;;6.56;100.00
3206;BME280;1615;53.602;11.418;2023-01-29T05:52:40;102004.59;;;6.57;100.00
3206;BME280;1615;53.602;11.418;2023-01-29T05:55:07;102005.09;;;6.54;100.00
3206;BME280;1615;53.602;11.418;2023-01-29T05:57:33;102005.44;;;6.35;100.00
3206;BME280;1615;53.602;11.418;2023-01-29T05:59:58;102015.84;;;6.38;100.00
3206;BME280;1615;53.602;11.418;2023-01-29T06:02:24;102015.03;;;6.37;100.00
3206;BME280;1615;53.602;11.418;2023-01-29T06:04:52;101999.06;;;6.41;100.00
3206;BME280;1615;53.602;11.418;2023-01-29T06:07:17;101996.91;;;6.43;100.00
3206;BME280;1615;53.602;11.418;2023-01-29T06:09:43;101999.06;;;6.41;100.00
3206;BME280;1615;53.602;11.418;2023-01-29T06:12:08;101998.00;;;6.42;100.00
3206;BME280;1615;53.602;11.418;2023-01-29T06:14:33;101987.22;;;6.47;100.00
3206;BME280;1615;53.602;11.418;2023-01-29T06:16:59;101995.38;;;6.47;100.00
3206;BME280;1615;53.602;11.418;2023-01-29T06:19:24;102008.31;;;6.40;100.00
3206;BME280;1615;53.602;11.418;2023-01-29T06:21:49;102018.25;;;6.46;100.00
3206;BME280;1615;53.602;11.418;2023-01-29T06:24:15;102013.25;;;6.43;100.00
3206;BME280;1615;53.602;11.418;2023-01-29T06:26:40;101954.16;;;6.09;100.00
3206;BME280;1615;53.602;11.418;2023-01-29T06:29:05;102006.75;;;6.44;100.00
3206;BME280;1615;53.602;11.418;2023-01-29T06:31:31;101998.56;;;6.44;100.00
3206;BME280;1615;53.602;11.418;2023-01-29T06:33:56;101999.63;;;6.43;100.00
3206;BME280;1615;53.602;11.418;2023-01-29T06:36:22;101987.44;;;6.34;100.00
3206;BME280;1615;53.602;11.418;2023-01-29T06:38:47;101970.63;;;6.37;100.00
3206;BME280;1615;53.602;11.418;2023-01-29T06:41:15;101972.88;;;6.40;100.00
3206;BME280;1615;53.602;11.418;2023-01-29T06:43:47;101969.53;;;6.26;100.00
3206;BME280;1615;53.602;11.418;2023-01-29T06:46:13;101993.34;;;6.31;100.00
3206;BME280;1615;53.602;11.418;2023-01-29T06:48:38;101998.69;;;6.37;100.00
3206;BME280;1615;53.602;11.418;2023-01-29T06:51:05;101952.16;;;6.39;100.00
3206;BME280;1615;53.602;11.418;2023-01-29T06:53:35;101949.78;;;6.31;100.00
3206;BME280;1615;53.602;11.418;2023-01-29T06:56:02;101948.59;;;6.27;100.00
3206;BME280;1615;53.602;11.418;2023-01-29T06:58:28;101800.16;;;5.44;100.00
3206;BME280;1615;53.602;11.418;2023-01-29T07:00:53;101955.84;;;6.21;100.00
3206;BME280;1615;53.602;11.418;2023-01-29T07:03:18;101952.38;;;6.26;100.00
3206;BME280;1615;53.602;11.418;2023-01-29T07:05:50;101846.84;;;5.64;100.00
3206;BME280;1615;53.602;11.418;2023-01-29T07:08:17;101970.97;;;6.29;100.00
3206;BME280;1615;53.602;11.418;2023-01-29T07:10:42;101859.88;;;5.62;100.00
3206;BME280;1615;53.602;11.418;2023-01-29T07:13:08;101979.25;;;6.34;100.00
3206;BME280;1615;53.602;11.418;2023-01-29T07:15:33;101976.91;;;6.37;100.00
3206;BME280;1615;53.602;11.418;2023-01-29T07:18:03;101978.22;;;6.35;100.00
3206;BME280;1615;53.602;11.418;2023-01-29T07:20:36;101966.84;;;6.38;100.00
3206;BME280;1615;53.602;11.418;2023-01-29T07:23:01;101954.75;;;6.34;100.00
3206;BME280;1615;53.602;11.418;2023-01-29T07:25:26;102031.84;;;6.34;100.00
3206;BME280;1615;53.602;11.418;2023-01-29T07:27:52;101942.09;;;6.28;100.00
3206;BME280;1615;53.602;11.418;2023-01-29T07:30:17;101948.84;;;6.37;100.00
3206;BME280;1615;53.602;11.418;2023-01-29T07:32:42;101961.38;;;6.38;100.00
3206;BME280;1615;53.602;11.418;2023-01-29T07:35:08;101954.41;;;6.42;100.00
3206;BME280;1615;53.602;11.418;2023-01-29T07:37:34;101960.66;;;6.42;100.00
3206;BME280;1615;53.602;11.418;2023-01-29T07:39:59;101941.38;;;6.32;100.00
3206;BME280;1615;53.602;11.418;2023-01-29T07:42:25;101906.94;;;6.15;100.00
3206;BME280;1615;53.602;11.418;2023-01-29T07:44:50;101952.03;;;6.45;100.00
3206;BME280;1615;53.602;11.418;2023-01-29T07:47:15;101959.97;;;6.47;100.00
3206;BME280;1615;53.602;11.418;2023-01-29T07:49:41;101946.25;;;6.42;100.00
3206;BME280;1615;53.602;11.418;2023-01-29T07:52:06;101945.41;;;6.41;100.00
3206;BME280;1615;53.602;11.418;2023-01-29T07:54:31;101940.28;;;6.45;100.00
3206;BME280;1615;53.602;11.418;2023-01-29T07:56:56;101911.53;;;6.26;100.00
3206;BME280;1615;53.602;11.418;2023-01-29T07:59:22;101949.53;;;6.44;100.00
3206;BME280;1615;53.602;11.418;2023-01-29T08:01:47;101934.38;;;6.48;100.00
3206;BME280;1615;53.602;11.418;2023-01-29T08:04:12;101905.97;;;6.44;100.00
3206;BME280;1615;53.602;11.418;2023-01-29T08:06:38;101907.03;;;6.43;100.00
3206;BME280;1615;53.602;11.418;2023-01-29T08:09:03;101936.75;;;6.56;100.00
3206;BME280;1615;53.602;11.418;2023-01-29T08:11:28;101934.38;;;6.48;100.00
3206;BME280;1615;53.602;11.418;2023-01-29T08:13:54;101914.97;;;6.56;100.00
3206;BME280;1615;53.602;11.418;2023-01-29T08:16:20;101916.84;;;6.67;100.00
3206;BME280;1615;53.602;11.418;2023-01-29T08:18:46;101914.81;;;6.74;100.00
3206;BME280;1615;53.602;11.418;2023-01-29T08:21:12;101901.44;;;6.61;100.00
3206;BME280;1615;53.602;11.418;2023-01-29T08:23:38;101921.91;;;6.63;100.00
3206;BME280;1615;53.602;11.418;2023-01-29T08:26:03;101934.72;;;6.63;100.00
3206;BME280;1615;53.602;11.418;2023-01-29T08:28:29;101871.41;;;6.10;100.00
3206;BME280;1615;53.602;11.418;2023-01-29T08:30:54;101934.03;;;6.44;100.00
3206;BME280;1615;53.602;11.418;2023-01-29T08:33:19;101938.66;;;6.67;100.00
3206;BME280;1615;53.602;11.418;2023-01-29T08:35:48;101924.06;;;6.73;100.00
3206;BME280;1615;53.602;11.418;2023-01-29T08:38:14;101929.88;;;6.65;100.00
3206;BME280;1615;53.602;11.418;2023-01-29T08:40:40;101936.50;;;6.69;100.00
3206;BME280;1615;53.602;11.418;2023-01-29T08:43:07;101902.88;;;6.40;100.00
3206;BME280;1615;53.602;11.418;2023-01-29T08:45:34;101936.84;;;6.61;100.00
3206;BME280;1615;53.602;11.418;2023-01-29T08:48:00;101929.53;;;6.50;100.00
3206;BME280;1615;53.602;11.418;2023-01-29T08:50:25;101928.09;;;6.47;100.00
3206;BME280;1615;53.602;11.418;2023-01-29T08:52:56;101924.91;;;6.39;100.00
3206;BME280;1615;53.602;11.418;2023-01-29T08:55:22;101908.56;;;6.39;100.00
3206;BME280;1615;53.602;11.418;2023-01-29T08:57:47;101934.16;;;6.38;100.00
3206;BME280;1615;53.602;11.418;2023-01-29T09:00:13;101938.41;;;6.34;100.00
3206;BME280;1615;53.602;11.418;2023-01-29T09:02:39;101884.44;;;6.08;100.00
3206;BME280;1615;53.602;11.418;2023-01-29T09:05:04;101923.59;;;6.53;100.00
3206;BME280;1615;53.602;11.418;2023-01-29T09:07:30;101921.56;;;6.60;100.00
3206;BME280;1615;53.602;11.418;2023-01-29T09:09:56;101931.16;;;6.62;100.00
3206;BME280;1615;53.602;11.418;2023-01-29T09:12:22;101887.03;;;6.26;100.00
3206;BME280;1615;53.602;11.418;2023-01-29T09:14:47;101927.97;;;6.54;100.00
3206;BME280;1615;53.602;11.418;2023-01-29T09:17:12;101923.03;;;6.51;100.00
3206;BME280;1615;53.602;11.418;2023-01-29T09:19:38;101851.78;;;6.08;100.00
3206;BME280;1615;53.602;11.418;2023-01-29T09:22:03;101916.16;;;6.48;100.00
3206;BME280;1615;53.602;11.418;2023-01-29T09:24:28;101884.66;;;6.41;100.00
3206;BME280;1615;53.602;11.418;2023-01-29T09:26:54;101911.50;;;6.72;100.00
3206;BME280;1615;53.602;11.418;2023-01-29T09:29:19;101826.28;;;6.25;100.00
3206;BME280;1615;53.602;11.418;2023-01-29T09:31:44;101906.25;;;6.82;100.00
3206;BME280;1615;53.602;11.418;2023-01-29T09:34:10;101914.44;;;6.82;100.00
3206;BME280;1615;53.602;11.418;2023-01-29T09:36:35;101904.25;;;6.89;100.00
3206;BME280;1615;53.602;11.418;2023-01-29T09:39:00;101901.63;;;6.94;100.00
3206;BME280;1615;53.602;11.418;2023-01-29T09:43:58;101871.31;;;6.79;100.00
3206;BME280;1615;53.602;11.418;2023-01-29T09:46:34;101793.03;;;6.35;100.00
3206;BME280;1615;53.602;11.418;2023-01-29T09:49:07;101886.91;;;6.95;100.00
3206;BME280;1615;53.602;11.418;2023-01-29T09:51:52;101872.59;;;6.88;100.00
3206;BME280;1615;53.602;11.418;2023-01-29T09:54:28;101869.63;;;6.89;100.00
3206;BME280;1615;53.602;11.418;2023-01-29T09:56:56;101864.22;;;7.06;100.00
3206;BME280;1615;53.602;11.418;2023-01-29T09:59:26;101724.16;;;6.23;100.00
3206;BME280;1615;53.602;11.418;2023-01-29T10:02:37;101699.16;;;5.98;100.00
3206;BME280;1615;53.602;11.418;2023-01-29T10:07:53;101854.13;;;6.78;100.00
3206;BME280;1615;53.602;11.418;2023-01-29T10:10:29;101858.06;;;6.71;100.00
3206;BME280;1615;53.602;11.418;2023-01-29T10:13:02;101847.47;;;6.86;100.00
3206;BME280;1615;53.602;11.418;2023-01-29T10:15:53;101843.38;;;6.72;100.00
3206;BME280;1615;53.602;11.418;2023-01-29T10:26:33;101821.28;;;6.85;100.00
3206;BME280;1615;53.602;11.418;2023-01-29T10:29:04;101816.63;;;6.97;100.00
3206;BME280;1615;53.602;11.418;2023-01-29T10:31:32;101809.59;;;7.01;100.00
3206;BME280;1615;53.602;11.418;2023-01-29T10:34:12;101689.50;;;6.07;100.00
3206;BME280;1615;53.602;11.418;2023-01-29T10:36:46;101804.16;;;7.01;100.00
3206;BME280;1615;53.602;11.418;2023-01-29T10:39:16;101809.97;;;6.93;100.00
3206;BME280;1615;53.602;11.418;2023-01-29T10:47:23;101788.44;;;6.91;100.00
3206;BME280;1615;53.602;11.418;2023-01-29T10:50:16;101789.13;;;6.98;100.00
3206;BME280;1615;53.602;11.418;2023-01-29T11:00:40;101774.97;;;6.85;100.00
3206;BME280;1615;53.602;11.418;2023-01-29T11:03:16;101784.66;;;6.92;100.00
3206;BME280;1615;53.602;11.418;2023-01-29T11:05:54;101794.78;;;6.80;100.00
3206;BME280;1615;53.602;11.418;2023-01-29T11:08:22;101787.50;;;6.86;100.00
3206;BME280;1615;53.602;11.418;2023-01-29T11:11:00;101789.06;;;6.82;100.00
3206;BME280;1615;53.602;11.418;2023-01-29T11:13:33;101789.66;;;6.84;100.00
3206;BME280;1615;53.602;11.418;2023-01-29T11:16:03;101787.13;;;6.94;100.00
3206;BME280;1615;53.602;11.418;2023-01-29T11:18:57;101788.53;;;6.96;100.00
3206;BME280;1615;53.602;11.418;2023-01-29T11:21:24;101788.03;;;6.99;100.00
3206;BME280;1615;53.602;11.418;2023-01-29T11:24:04;101780.50;;;6.90;100.00
3206;BME280;1615;53.602;11.418;2023-01-29T11:26:33;101779.44;;;6.91;100.00
3206;BME280;1615;53.602;11.418;2023-01-29T11:28:59;101774.50;;;6.88;100.00
3206;BME280;1615;53.602;11.418;2023-01-29T11:31:34;101759.59;;;6.79;100.00
3206;BME280;1615;53.602;11.418;2023-01-29T11:34:04;101755.84;;;6.68;100.00
3206;BME280;1615;53.602;11.418;2023-01-29T11:36:34;101774.88;;;6.80;100.00
3206;BME280;1615;53.602;11.418;2023-01-29T11:44:18;101723.38;;;6.39;100.00
3206;BME280;1615;53.602;11.418;2023-01-29T11:46:44;101747.63;;;6.80;100.00
3206;BME280;1615;53.602;11.418;2023-01-29T11:49:21;101742.03;;;6.86;100.00
3206;BME280;1615;53.602;11.418;2023-01-29T11:51:53;101738.88;;;6.78;100.00
3206;BME280;1615;53.602;11.418;2023-01-29T11:54:24;101732.91;;;6.81;100.00
3206;BME280;1615;53.602;11.418;2023-01-29T11:56:52;101723.66;;;6.82;100.00
3206;BME280;1615;53.602;11.418;2023-01-29T11:59:37;101718.03;;;6.72;100.00
3206;BME280;1615;53.602;11.418;2023-01-29T12:02:13;101710.00;;;6.65;100.00
3206;BME280;1615;53.602;11.418;2023-01-29T12:04:42;101716.53;;;6.64;100.00
3206;BME280;1615;53.602;11.418;2023-01-29T12:07:15;101695.75;;;6.75;100.00
3206;BME280;1615;53.602;11.418;2023-01-29T12:09:49;101701.00;;;6.65;100.00
3206;BME280;1615;53.602;11.418;2023-01-29T12:12:30;101687.47;;;6.53;100.00
3206;BME280;1615;53.602;11.418;2023-01-29T12:17:44;101599.22;;;6.10;100.00
3206;BME280;1615;53.602;11.418;2023-01-29T12:20:18;101693.47;;;6.55;100.00
3206;BME280;1615;53.602;11.418;2023-01-29T12:23:10;101699.34;;;6.64;100.00
3206;BME280;1615;53.602;11.418;2023-01-29T12:25:46;101769.72;;;6.67;100.00
3206;BME280;1615;53.602;11.418;2023-01-29T12:31:07;101677.75;;;6.74;100.00
3206;BME280;1615;53.602;11.418;2023-01-29T12:36:20;101664.94;;;6.74;100.00
3206;BME280;1615;53.602;11.418;2023-01-29T12:38:48;101665.13;;;6.68;100.00
3206;BME280;1615;53.602;11.418;2023-01-29T12:41:44;101662.38;;;6.68;100.00
3206;BME280;1615;53.602;11.418;2023-01-29T12:44:16;101570.53;;;6.19;100.00
3206;BME280;1615;53.602;11.418;2023-01-29T12:46:47;101658.75;;;6.79;100.00
3206;BME280;1615;53.602;11.418;2023-01-29T12:49:22;101651.41;;;6.79;100.00
3206;BME280;1615;53.602;11.418;2023-01-29T12:52:38;101651.66;;;6.78;100.00
3206;BME280;1615;53.602;11.418;2023-01-29T12:54:57;101645.56;;;6.87;100.00
3206;BME280;1615;53.602;11.418;2023-01-29T13:00:21;101635.50;;;6.88;100.00
3206;BME280;1615;53.602;11.418;2023-01-29T13:05:56;101637.13;;;6.89;100.00
3206;BME280;1615;53.602;11.418;2023-01-29T13:08:30;101628.84;;;7.00;100.00
3206;BME280;1615;53.602;11.418;2023-01-29T13:11:03;101561.97;;;6.60;100.00
3206;BME280;1615;53.602;11.418;2023-01-29T13:16:19;101620.44;;;7.02;100.00
3206;BME280;1615;53.602;11.418;2023-01-29T13:21:53;101616.31;;;6.99;100.00
3206;BME280;1615;53.602;11.418;2023-01-29T13:24:23;101613.91;;;7.03;100.00
3206;BME280;1615;53.602;11.418;2023-01-29T13:26:49;101613.91;;;7.03;100.00
3206;BME280;1615;53.602;11.418;2023-01-29T13:29:26;101608.44;;;7.03;100.00
3206;BME280;1615;53.602;11.418;2023-01-29T13:31:54;101594.66;;;6.93;100.00
3206;BME280;1615;53.602;11.418;2023-01-29T13:36:52;101606.06;;;6.90;100.00
3206;BME280;1615;53.602;11.418;2023-01-29T13:39:30;101597.66;;;6.91;100.00
3206;BME280;1615;53.602;11.418;2023-01-29T13:41:59;101489.63;;;6.31;100.00
3206;BME280;1615;53.602;11.418;2023-01-29T13:44:27;101583.63;;;6.83;100.00
3206;BME280;1615;53.602;11.418;2023-01-29T13:49:28;101575.53;;;6.88;100.00
3206;BME280;1615;53.602;11.418;2023-01-29T13:51:54;101533.97;;;6.81;100.00
3206;BME280;1615;53.602;11.418;2023-01-29T13:54:23;101621.59;;;6.73;100.00
3206;BME280;1615;53.602;11.418;2023-01-29T13:56:57;101551.41;;;6.80;100.00
3206;BME280;1615;53.602;11.418;2023-01-29T13:59:51;101553.50;;;6.73;100.00
3206;BME280;1615;53.602;11.418;2023-01-29T14:02:24;101545.41;;;6.78;100.00
3206;BME280;1615;53.602;11.418;2023-01-29T14:04:50;101543.00;;;6.65;100.00
3206;BME280;1615;53.602;11.418;2023-01-29T14:07:42;101544.63;;;6.66;100.00
3206;BME280;1615;53.602;11.418;2023-01-29T14:10:14;101545.63;;;6.60;100.00
3206;BME280;1615;53.602;11.418;2023-01-29T14:12:41;101535.41;;;6.67;100.00
3206;BME280;1615;53.602;11.418;2023-01-29T14:15:20;101527.81;;;6.69;100.00
3206;BME280;1615;53.602;11.418;2023-01-29T14:18:05;101522.91;;;6.71;100.00
3206;BME280;1615;53.602;11.418;2023-01-29T14:20:40;101522.69;;;6.72;100.00
3206;BME280;1615;53.602;11.418;2023-01-29T14:23:37;101518.63;;;6.75;100.00
3206;BME280;1615;53.602;11.418;2023-01-29T14:26:29;101512.09;;;6.76;100.00
3206;BME280;1615;53.602;11.418;2023-01-29T14:29:22;101499.41;;;6.65;100.00
3206;BME280;1615;53.602;11.418;2023-01-29T14:31:57;101499.56;;;6.75;100.00
3206;BME280;1615;53.602;11.418;2023-01-29T14:37:19;101505.00;;;6.75;100.00
3206;BME280;1615;53.602;11.418;2023-01-29T14:39:51;101499.06;;;6.78;100.00
3206;BME280;1615;53.602;11.418;2023-01-29T14:42:29;101491.13;;;6.76;100.00
3206;BME280;1615;53.602;11.418;2023-01-29T14:45:08;101496.06;;;6.79;100.00
3206;BME280;1615;53.602;11.418;2023-01-29T14:50:05;101485.97;;;6.96;100.00
3206;BME280;1615;53.602;11.418;2023-01-29T14:52:48;101473.75;;;6.99;100.00
3206;BME280;1615;53.602;11.418;2023-01-29T14:55:34;101471.06;;;6.82;100.00
3206;BME280;1615;53.602;11.418;2023-01-29T14:58:02;101418.47;;;6.44;100.00